createdAt,value
2022-11-28T00:00:32.986Z,101568.53
2022-11-28T00:03:35.965Z,101571.22
2022-11-28T00:06:47.032Z,101576.00
2022-11-28T00:09:50.361Z,101577.34
2022-11-28T00:12:53.405Z,101571.84
2022-11-28T00:16:00.246Z,101567.16
2022-11-28T00:19:03.588Z,101568.09
2022-11-28T00:22:06.154Z,101563.31
2022-11-28T00:25:08.796Z,101577.47
2022-11-28T00:28:11.269Z,101573.28
2022-11-28T00:31:20.778Z,101576.66
2022-11-28T00:34:24.367Z,101575.72
2022-11-28T00:37:27.937Z,101577.13
2022-11-28T00:40:30.569Z,101576.91
2022-11-28T00:43:34.371Z,101571.88
2022-11-28T00:46:37.027Z,101572.53
2022-11-28T00:49:39.571Z,101577.91
2022-11-28T00:52:42.097Z,101572.53
2022-11-28T00:55:44.594Z,101579.56
2022-11-28T00:58:49.723Z,101578.38
2022-11-28T01:01:53.416Z,101579.66
2022-11-28T01:04:56.989Z,101583.41
2022-11-28T01:07:59.602Z,101578.41
2022-11-28T01:11:02.571Z,101580.06
2022-11-28T01:14:06.041Z,101570.94
2022-11-28T01:17:09.465Z,101568.59
2022-11-28T01:20:12.499Z,101570.13
2022-11-28T01:23:18.549Z,101563.41
2022-11-28T01:26:27.637Z,101571.25
2022-11-28T01:29:30.109Z,101570.13
2022-11-28T01:32:32.641Z,101562.41
2022-11-28T01:35:35.981Z,101562.88
2022-11-28T01:38:40.001Z,101562.72
2022-11-28T01:41:42.866Z,101553.94
2022-11-28T01:44:48.409Z,101554.06
2022-11-28T01:47:53.872Z,101550.78
2022-11-28T01:51:01.023Z,101538.28
2022-11-28T01:54:04.621Z,101535.44
2022-11-28T01:57:12.774Z,101530.28
2022-11-28T02:00:20.971Z,101523.72
2022-11-28T02:03:30.260Z,101534.97
2022-11-28T02:06:33.819Z,101521.28
2022-11-28T02:09:37.120Z,101517.41
2022-11-28T02:12:48.302Z,101515.09
2022-11-28T02:16:05.561Z,101513.69
2022-11-28T02:19:17.725Z,101517.44
2022-11-28T02:22:59.334Z,101508.19
2022-11-28T02:26:40.042Z,101505.16
2022-11-28T02:29:59.342Z,101503.50
2022-11-28T02:33:14.248Z,101509.13
2022-11-28T02:36:59.644Z,101497.47
2022-11-28T02:40:42.867Z,101498.41
2022-11-28T02:43:59.288Z,101493.94
2022-11-28T02:47:18.944Z,101488.56
2022-11-28T02:50:28.643Z,101490.88
2022-11-28T02:53:34.166Z,101485.97
2022-11-28T02:56:36.954Z,101481.19
2022-11-28T02:59:43.045Z,101489.38
2022-11-28T03:03:00.452Z,101483.31
2022-11-28T03:06:21.710Z,101483.19
2022-11-28T03:09:45.405Z,101483.28
2022-11-28T03:12:57.310Z,101479.78
2022-11-28T03:16:19.379Z,101483.78
2022-11-28T03:19:30.931Z,101483.53
2022-11-28T03:22:40.686Z,101472.75
2022-11-28T03:26:04.076Z,101465.63
2022-11-28T03:29:16.457Z,101467.28
2022-11-28T03:32:26.795Z,101466.44
2022-11-28T03:35:34.571Z,101458.16
2022-11-28T03:38:42.785Z,101451.03
2022-11-28T03:41:55.221Z,101444.47
2022-11-28T03:45:24.115Z,101433.38
2022-11-28T03:48:31.959Z,101435.72
2022-11-28T03:51:46.794Z,101425.78
2022-11-28T03:54:55.589Z,101410.56
2022-11-28T03:58:07.368Z,101420.13
2022-11-28T04:01:32.137Z,101409.84
2022-11-28T04:04:38.264Z,101415.13
2022-11-28T04:07:50.486Z,101414.56
2022-11-28T04:10:58.654Z,101415.47
2022-11-28T04:14:25.283Z,101410.66
2022-11-28T04:17:39.945Z,101408.38
2022-11-28T04:21:04.929Z,101407.16
2022-11-28T04:24:14.939Z,101404.72
2022-11-28T04:27:23.465Z,101399.69
2022-11-28T04:30:27.779Z,101398.03
2022-11-28T04:33:36.527Z,101398.66
2022-11-28T04:36:43.465Z,101391.50
2022-11-28T04:39:49.168Z,101397.59
2022-11-28T04:43:01.292Z,101402.72
2022-11-28T04:46:25.231Z,101404.84
2022-11-28T04:49:29.578Z,101400.50
2022-11-28T04:52:53.138Z,101398.41
2022-11-28T04:56:02.506Z,101399.81
2022-11-28T04:59:07.637Z,101398.28
2022-11-28T05:02:13.523Z,101394.09
2022-11-28T05:05:23.504Z,101388.91
2022-11-28T05:08:26.716Z,101395.53
2022-11-28T05:11:29.456Z,101397.09
2022-11-28T05:14:32.915Z,101405.97
2022-11-28T05:17:41.716Z,101398.25
2022-11-28T05:20:44.866Z,101403.03
2022-11-28T05:23:47.340Z,101411.44
2022-11-28T05:26:50.125Z,101407.38
2022-11-28T05:29:53.915Z,101401.63
2022-11-28T05:32:58.768Z,101395.09
2022-11-28T05:36:13.139Z,101411.66
2022-11-28T05:39:16.280Z,101416.34
2022-11-28T05:42:20.119Z,101423.38
2022-11-28T05:45:22.820Z,101425.00
2022-11-28T05:48:25.602Z,101431.91
2022-11-28T05:51:28.955Z,101426.19
2022-11-28T05:54:32.189Z,101434.47
2022-11-28T05:57:37.842Z,101428.28
2022-11-28T06:00:40.552Z,101429.09
2022-11-28T06:03:43.874Z,101425.59
2022-11-28T06:06:46.490Z,101431.06
2022-11-28T06:09:50.018Z,101433.06
2022-11-28T06:12:53.251Z,101430.25
2022-11-28T06:15:56.268Z,101424.50
2022-11-28T06:19:04.286Z,101434.94
2022-11-28T06:22:07.345Z,101428.97
2022-11-28T06:25:10.378Z,101427.56
2022-11-28T06:28:12.824Z,101426.88
2022-11-28T06:31:23.121Z,101429.09
2022-11-28T06:34:27.164Z,101426.88
2022-11-28T06:37:30.661Z,101428.69
2022-11-28T06:40:34.642Z,101424.19
2022-11-28T06:43:38.488Z,101436.22
2022-11-28T06:46:43.945Z,101433.28
2022-11-28T06:49:49.482Z,101439.63
2022-11-28T06:52:55.040Z,101444.69
2022-11-28T06:56:01.669Z,101449.47
2022-11-28T06:59:04.577Z,101447.50
2022-11-28T07:02:09.493Z,101447.44
2022-11-28T07:05:15.243Z,101449.81
2022-11-28T07:08:21.696Z,101444.16
2022-11-28T07:11:28.149Z,101443.47
2022-11-28T07:14:33.668Z,101442.88
2022-11-28T07:17:40.033Z,101438.31
2022-11-28T07:20:45.969Z,101445.25
2022-11-28T07:23:49.560Z,101440.72
2022-11-28T07:26:52.167Z,101437.09
2022-11-28T07:29:54.899Z,101435.81
2022-11-28T07:32:58.659Z,101440.91
2022-11-28T07:36:07.473Z,101445.09
2022-11-28T07:39:13.771Z,101446.56
2022-11-28T07:42:17.063Z,101436.06
2022-11-28T07:45:53.476Z,101427.69
2022-11-28T07:48:54.270Z,101425.38
2022-11-28T07:51:58.782Z,101420.72
2022-11-28T07:55:01.973Z,101417.22
2022-11-28T07:58:05.816Z,101418.50
2022-11-28T08:01:14.231Z,101415.81
2022-11-28T08:04:17.501Z,101416.72
2022-11-28T08:07:20.543Z,101418.03
2022-11-28T08:10:23.313Z,101419.81
2022-11-28T08:13:28.102Z,101417.09
2022-11-28T08:16:32.722Z,101414.19
2022-11-28T08:19:35.829Z,101409.88
2022-11-28T08:22:38.800Z,101407.41
2022-11-28T08:25:41.683Z,101414.91
2022-11-28T08:28:45.420Z,101415.34
2022-11-28T08:31:49.027Z,101420.38
2022-11-28T08:34:52.088Z,101428.22
2022-11-28T08:38:00.390Z,101438.63
2022-11-28T08:41:10.813Z,101432.78
2022-11-28T08:44:18.310Z,101433.25
2022-11-28T08:47:21.473Z,101425.84
2022-11-28T08:50:27.430Z,101434.41
2022-11-28T08:53:30.600Z,101436.03
2022-11-28T08:56:36.619Z,101433.38
2022-11-28T08:59:39.648Z,101435.13
2022-11-28T09:02:42.665Z,101430.22
2022-11-28T09:05:47.477Z,101424.81
2022-11-28T09:08:53.634Z,101424.81
2022-11-28T09:11:59.768Z,101419.94
2022-11-28T09:15:06.130Z,101417.00
2022-11-28T09:18:09.438Z,101414.53
2022-11-28T09:21:15.023Z,101418.63
2022-11-28T09:24:18.905Z,101417.94
2022-11-28T09:27:21.494Z,101413.84
2022-11-28T09:30:26.791Z,101409.28
2022-11-28T09:33:30.651Z,101398.75
2022-11-28T09:36:33.802Z,101403.66
2022-11-28T09:39:50.605Z,101399.19
2022-11-28T09:43:11.217Z,101393.19
2022-11-28T09:46:24.902Z,101387.59
2022-11-28T09:49:40.588Z,101385.03
2022-11-28T09:52:53.706Z,101383.66
2022-11-28T09:56:00.512Z,101377.81
2022-11-28T09:59:23.525Z,101375.94
2022-11-28T10:02:35.155Z,101368.22
2022-11-28T10:05:52.293Z,101371.88
2022-11-28T10:09:47.978Z,101373.84
2022-11-28T10:13:14.616Z,101369.75
2022-11-28T10:21:20.242Z,101363.00
2022-11-28T10:24:37.998Z,101356.91
2022-11-28T10:28:05.621Z,101345.44
2022-11-28T10:31:35.667Z,101351.50
2022-11-28T10:45:56.903Z,101337.81
2022-11-28T10:49:49.323Z,101334.47
2022-11-28T10:53:23.732Z,101325.91
2022-11-28T10:57:38.719Z,101323.69
2022-11-28T11:00:49.458Z,101320.06
2022-11-28T11:03:56.795Z,101318.41
2022-11-28T11:07:54.799Z,101313.56
2022-11-28T11:11:45.769Z,101301.25
2022-11-28T11:15:33.943Z,101315.25
2022-11-28T11:19:00.692Z,101313.09
2022-11-28T11:22:14.412Z,101304.88
2022-11-28T11:25:46.732Z,101309.06
2022-11-28T11:28:51.260Z,101306.28
2022-11-28T11:32:04.124Z,101308.47
2022-11-28T11:35:43.584Z,101303.00
2022-11-28T11:43:38.022Z,101302.66
2022-11-28T11:47:11.317Z,101303.91
2022-11-28T11:50:35.693Z,101306.50
2022-11-28T11:53:46.373Z,101304.69
2022-11-28T11:57:32.398Z,101292.19
2022-11-28T12:00:47.907Z,101295.59
2022-11-28T12:04:37.209Z,101293.91
2022-11-28T12:07:40.028Z,101295.72
2022-11-28T12:11:22.241Z,101284.03
2022-11-28T12:14:55.855Z,101287.53
2022-11-28T12:18:35.394Z,101284.50
2022-11-28T12:22:06.273Z,101269.94
2022-11-28T12:25:23.311Z,101274.97
2022-11-28T12:29:15.396Z,101272.63
2022-11-28T12:32:28.658Z,101273.22
2022-11-28T12:35:39.768Z,101276.38
2022-11-28T12:39:14.854Z,101267.56
2022-11-28T12:42:34.544Z,101266.78
2022-11-28T12:46:03.166Z,101273.78
2022-11-28T12:50:01.016Z,101270.97
2022-11-28T12:53:35.026Z,101262.47
2022-11-28T12:57:03.199Z,101263.06
2022-11-28T13:00:30.044Z,101262.53
2022-11-28T13:04:28.882Z,101252.00
2022-11-28T13:08:12.744Z,101245.22
2022-11-28T13:11:55.555Z,101252.56
2022-11-28T13:15:18.158Z,101245.63
2022-11-28T13:18:48.209Z,101245.97
2022-11-28T13:22:03.333Z,101242.13
2022-11-28T13:25:32.904Z,101233.19
2022-11-28T13:29:14.882Z,101235.19
2022-11-28T13:32:47.599Z,101236.41
2022-11-28T13:40:24.261Z,101232.78
2022-11-28T13:43:30.673Z,101240.00
2022-11-28T13:46:35.159Z,101236.75
2022-11-28T13:49:46.193Z,101238.63
2022-11-28T13:57:45.928Z,101242.03
2022-11-28T14:01:12.960Z,101243.63
2022-11-28T14:05:27.148Z,101242.56
2022-11-28T14:08:57.009Z,101234.56
2022-11-28T14:12:08.115Z,101229.22
2022-11-28T14:15:36.322Z,101233.09
2022-11-28T14:19:15.696Z,101228.69
2022-11-28T14:22:45.590Z,101230.31
2022-11-28T14:25:52.578Z,101227.44
2022-11-28T14:29:04.421Z,101222.88
2022-11-28T14:32:39.951Z,101222.66
2022-11-28T14:35:53.381Z,101222.44
2022-11-28T14:39:20.239Z,101222.53
2022-11-28T14:42:58.083Z,101217.06
2022-11-28T14:45:50.611Z,101220.09
2022-11-28T14:49:00.803Z,101210.28
2022-11-28T14:52:39.563Z,101221.50
2022-11-28T14:55:47.759Z,101218.34
2022-11-28T14:59:28.850Z,101211.50
2022-11-28T15:03:04.886Z,101211.38
2022-11-28T15:06:23.172Z,101217.22
2022-11-28T15:09:49.776Z,101220.25
2022-11-28T15:13:19.260Z,101213.34
2022-11-28T15:16:32.499Z,101226.19
2022-11-28T15:19:46.110Z,101235.78
2022-11-28T15:22:59.724Z,101232.84
2022-11-28T15:26:42.954Z,101244.63
2022-11-28T15:29:58.763Z,101241.38
2022-11-28T15:33:06.085Z,101239.63
2022-11-28T15:36:29.959Z,101246.34
2022-11-28T15:39:44.824Z,101239.72
2022-11-28T15:42:50.652Z,101242.31
2022-11-28T15:46:01.645Z,101236.78
2022-11-28T15:49:06.743Z,101247.41
2022-11-28T15:52:20.307Z,101245.09
2022-11-28T15:55:26.905Z,101244.13
2022-11-28T15:58:38.298Z,101248.69
2022-11-28T16:02:02.619Z,101246.34
2022-11-28T16:05:30.513Z,101249.00
2022-11-28T16:08:40.504Z,101251.88
2022-11-28T16:12:02.634Z,101244.97
2022-11-28T16:15:35.564Z,101245.31
2022-11-28T16:19:03.554Z,101253.84
2022-11-28T16:22:23.919Z,101255.25
2022-11-28T16:25:45.340Z,101253.47
2022-11-28T16:29:17.812Z,101255.34
2022-11-28T16:32:38.612Z,101250.22
2022-11-28T16:35:52.582Z,101256.28
2022-11-28T16:39:13.662Z,101259.78
2022-11-28T16:42:18.847Z,101251.06
2022-11-28T16:45:32.787Z,101249.81
2022-11-28T16:48:38.626Z,101256.66
2022-11-28T16:52:09.220Z,101254.97
2022-11-28T16:55:47.357Z,101256.66
2022-11-28T16:59:27.543Z,101260.97
2022-11-28T17:02:43.533Z,101256.78
2022-11-28T17:06:06.267Z,101257.84
2022-11-28T17:09:22.795Z,101258.31
2022-11-28T17:12:46.367Z,101261.28
2022-11-28T17:16:06.425Z,101263.28
2022-11-28T17:19:16.332Z,101255.31
2022-11-28T17:22:51.337Z,101256.06
2022-11-28T17:26:07.357Z,101271.88
2022-11-28T17:29:29.406Z,101260.44
2022-11-28T17:32:37.000Z,101261.41
2022-11-28T17:35:57.445Z,101268.13
2022-11-28T17:39:17.385Z,101270.59
2022-11-28T17:42:20.483Z,101264.53
2022-11-28T17:45:31.264Z,101266.84
2022-11-28T17:48:52.928Z,101263.59
2022-11-28T17:52:16.144Z,101274.13
2022-11-28T17:55:36.058Z,101268.94
2022-11-28T17:58:56.157Z,101259.75
2022-11-28T18:02:04.473Z,101266.75
2022-11-28T18:05:20.111Z,101267.28
2022-11-28T18:08:43.106Z,101264.94
2022-11-28T18:11:47.037Z,101268.84
2022-11-28T18:15:03.521Z,101271.03
2022-11-28T18:18:19.422Z,101276.59
2022-11-28T18:21:42.127Z,101276.00
2022-11-28T18:25:00.427Z,101276.81
2022-11-28T18:28:30.006Z,101267.31
2022-11-28T18:31:53.635Z,101279.00
2022-11-28T18:35:16.035Z,101270.38
2022-11-28T18:38:39.993Z,101272.97
2022-11-28T18:42:05.547Z,101280.91
2022-11-28T18:45:22.483Z,101285.97
2022-11-28T18:48:40.085Z,101278.03
2022-11-28T18:52:02.445Z,101276.75
2022-11-28T18:55:26.045Z,101279.13
2022-11-28T18:58:49.483Z,101283.09
2022-11-28T19:02:24.923Z,101282.16
2022-11-28T19:05:39.455Z,101284.94
2022-11-28T19:08:53.646Z,101278.69
2022-11-28T19:11:56.642Z,101274.22
2022-11-28T19:15:02.581Z,101280.59
2022-11-28T19:18:09.521Z,101266.81
2022-11-28T19:21:35.435Z,101273.31
2022-11-28T19:24:52.132Z,101272.16
2022-11-28T19:28:07.998Z,101273.53
2022-11-28T19:31:34.150Z,101274.75
2022-11-28T19:34:55.880Z,101276.91
2022-11-28T19:38:15.881Z,101271.34
2022-11-28T19:41:35.822Z,101269.34
2022-11-28T19:44:55.998Z,101270.16
2022-11-28T19:48:12.057Z,101273.41
2022-11-28T19:51:20.818Z,101279.22
2022-11-28T19:54:30.115Z,101277.75
2022-11-28T19:57:51.691Z,101284.03
2022-11-28T20:01:15.813Z,101283.69
2022-11-28T20:04:27.933Z,101281.13
2022-11-28T20:07:44.242Z,101273.69
2022-11-28T20:11:20.593Z,101277.25
2022-11-28T20:14:43.910Z,101271.06
2022-11-28T20:18:08.578Z,101273.16
2022-11-28T20:21:28.585Z,101276.94
2022-11-28T20:24:51.747Z,101270.66
2022-11-28T20:28:08.954Z,101265.94
2022-11-28T20:31:40.709Z,101270.84
2022-11-28T20:35:05.738Z,101276.66
2022-11-28T20:38:20.912Z,101274.88
2022-11-28T20:41:26.094Z,101276.50
2022-11-28T20:44:30.004Z,101272.13
2022-11-28T20:47:41.081Z,101272.78
2022-11-28T20:50:52.075Z,101273.69
2022-11-28T20:54:15.834Z,101269.88
2022-11-28T20:57:51.587Z,101280.09
2022-11-28T21:01:12.739Z,101282.13
2022-11-28T21:04:33.186Z,101277.34
2022-11-28T21:07:42.231Z,101282.03
2022-11-28T21:10:58.599Z,101282.84
2022-11-28T21:14:03.369Z,101283.22
2022-11-28T21:17:08.013Z,101290.06
2022-11-28T21:20:30.608Z,101291.94
2022-11-28T21:23:45.736Z,101289.56
2022-11-28T21:27:08.622Z,101287.53
2022-11-28T21:30:15.946Z,101293.13
2022-11-28T21:33:19.529Z,101286.81
2022-11-28T21:36:34.318Z,101290.91
2022-11-28T21:39:44.430Z,101282.50
2022-11-28T21:43:07.547Z,101293.63
2022-11-28T21:46:41.263Z,101281.44
2022-11-28T21:50:02.217Z,101281.72
2022-11-28T21:53:18.651Z,101290.69
2022-11-28T21:56:28.013Z,101291.25
2022-11-28T21:59:43.741Z,101288.00
2022-11-28T22:03:14.469Z,101293.25
2022-11-28T22:06:39.537Z,101292.44
2022-11-28T22:10:14.468Z,101284.13
2022-11-28T22:13:35.630Z,101286.13
2022-11-28T22:16:50.256Z,101288.72
2022-11-28T22:20:13.660Z,101284.84
2022-11-28T22:23:47.307Z,101291.63
2022-11-28T22:27:09.330Z,101291.19
2022-11-28T22:30:12.608Z,101287.91
2022-11-28T22:33:16.292Z,101286.19
2022-11-28T22:36:27.924Z,101288.06
2022-11-28T22:39:31.111Z,101286.19
2022-11-28T22:42:41.041Z,101283.41
2022-11-28T22:45:44.846Z,101288.81
2022-11-28T22:48:48.561Z,101276.81
2022-11-28T22:51:52.283Z,101277.28
2022-11-28T22:55:15.559Z,101280.31
2022-11-28T22:58:40.968Z,101290.97
2022-11-28T23:01:54.038Z,101281.78
2022-11-28T23:05:15.790Z,101278.50
2022-11-28T23:08:29.112Z,101284.75
2022-11-28T23:11:55.237Z,101284.38
2022-11-28T23:15:14.039Z,101284.47
2022-11-28T23:18:37.931Z,101289.66
2022-11-28T23:21:44.601Z,101287.34
2022-11-28T23:24:54.497Z,101286.19
2022-11-28T23:28:07.576Z,101290.84
2022-11-28T23:31:30.591Z,101293.41
2022-11-28T23:34:47.892Z,101284.69
2022-11-28T23:38:08.375Z,101286.66
2022-11-28T23:41:19.299Z,101287.06
2022-11-28T23:44:23.356Z,101288.63
2022-11-28T23:47:26.416Z,101291.84
2022-11-28T23:50:49.232Z,101286.31
2022-11-28T23:54:16.469Z,101276.88
2022-11-28T23:57:38.704Z,101275.38
